KMFR/MFR METAR and TAF weather

Enter ICAO airport designator
Station Type Date Time Source
KMFR METAR 2020/07/09 06:53 UTC NOAA

KMFR 090653Z AUTO 00000KT 10SM CLR 19/08 A2999 RMK AO2 SLP147 T01890078


Station Type Date Time Source
KMFR Decoded METAR 2020/07/09 06:53 UTC NOAA

ROGUE VALLEY INTERNATIONAL AIRPORT, OR, United States (KMFR) 42-23N 122-53W 396M
Jul 09, 2020 - 02:53 AM EDT / 2020.07.09 0653 UTC
Wind: Calm:0
Visibility: 10 mile(s):0
Sky conditions: clear
Temperature: 66.0 F (18.9 C)
Dew Point: 46.0 F (7.8 C)
Relative Humidity: 48%
Pressure (altimeter): 29.99 in. Hg (1015 hPa)
ob: KMFR 090653Z AUTO 00000KT 10SM CLR 19/08 A2999 RMK AO2 SLP147 T01890078
cycle: 7

Station Type Date Time Source
KMFR TAF 2020/07/09 06:39 UTC NOAA

TAF KMFR 090536Z 0906/1006 35003KT P6SM SKC
FM092100 31012G18KT P6SM SCT080 SCT150
FM100200 34015G22KT P6SM FEW070
FM100400 35008KT P6SM SKC

Example: see airport list